createdAt,value
2018-10-17T00:01:17.640Z,12.65
2018-10-17T00:03:45.922Z,12.60
2018-10-17T00:06:14.231Z,12.51
2018-10-17T00:08:42.623Z,12.56
2018-10-17T00:11:11.086Z,12.56
2018-10-17T00:13:39.379Z,12.50
2018-10-17T00:16:07.719Z,12.48
2018-10-17T00:18:36.256Z,12.46
2018-10-17T00:21:05.294Z,12.44
2018-10-17T00:23:33.995Z,12.31
2018-10-17T00:26:02.592Z,12.30
2018-10-17T00:28:30.927Z,12.40
2018-10-17T00:30:59.304Z,12.46
2018-10-17T00:33:27.601Z,12.44
2018-10-17T00:35:55.912Z,12.37
2018-10-17T00:38:24.258Z,12.39
2018-10-17T00:40:52.617Z,12.39
2018-10-17T00:43:20.915Z,12.37
2018-10-17T00:45:49.251Z,12.34
2018-10-17T00:48:17.612Z,12.32
2018-10-17T00:50:45.947Z,12.27
2018-10-17T00:53:14.441Z,12.27
2018-10-17T00:55:42.746Z,12.29
2018-10-17T00:58:11.222Z,12.28
2018-10-17T01:00:39.603Z,12.25
2018-10-17T01:03:07.918Z,12.25
2018-10-17T01:05:36.255Z,12.21
2018-10-17T01:08:04.754Z,12.19
2018-10-17T01:10:33.548Z,12.16
2018-10-17T01:13:02.226Z,12.04
2018-10-17T01:15:30.564Z,12.07
2018-10-17T01:17:58.886Z,12.05
2018-10-17T01:20:27.235Z,12.10
2018-10-17T01:22:55.555Z,12.08
2018-10-17T01:25:23.906Z,12.05
2018-10-17T01:27:52.250Z,12.02
2018-10-17T01:30:20.569Z,11.97
2018-10-17T01:32:48.890Z,12.00
2018-10-17T01:35:17.251Z,11.98
2018-10-17T01:37:45.555Z,11.95
2018-10-17T01:40:13.876Z,11.94
2018-10-17T01:42:42.217Z,11.87
2018-10-17T01:45:10.701Z,11.81
2018-10-17T01:47:39.034Z,11.87
2018-10-17T01:50:07.988Z,11.87
2018-10-17T01:52:36.303Z,11.89
2018-10-17T01:55:05.305Z,11.87
2018-10-17T01:57:33.574Z,11.87
2018-10-17T02:00:01.924Z,11.88
2018-10-17T02:02:30.239Z,11.84
2018-10-17T02:04:58.563Z,11.83
2018-10-17T02:07:26.882Z,11.84
2018-10-17T02:09:55.194Z,11.79
2018-10-17T02:12:23.511Z,11.80
2018-10-17T02:14:51.891Z,11.81
2018-10-17T02:17:20.209Z,11.79
2018-10-17T02:19:48.539Z,11.73
2018-10-17T02:22:16.858Z,11.76
2018-10-17T02:24:45.190Z,11.78
2018-10-17T02:27:13.510Z,11.77
2018-10-17T02:29:41.833Z,11.71
2018-10-17T02:32:10.135Z,11.71
2018-10-17T02:34:43.794Z,11.69
2018-10-17T02:37:12.181Z,11.68
2018-10-17T02:39:40.452Z,11.58
2018-10-17T02:42:08.784Z,11.57
2018-10-17T02:44:37.103Z,11.56
2018-10-17T02:47:05.639Z,11.61
2018-10-17T02:49:33.908Z,11.56
2018-10-17T02:52:02.236Z,11.45
2018-10-17T02:54:30.561Z,11.40
2018-10-17T02:56:58.884Z,11.51
2018-10-17T02:59:27.220Z,11.55
2018-10-17T03:01:55.547Z,11.49
2018-10-17T03:04:23.884Z,11.46
2018-10-17T03:06:52.256Z,11.47
2018-10-17T03:09:20.593Z,11.47
2018-10-17T03:11:48.920Z,11.47
2018-10-17T03:14:17.500Z,11.53
2018-10-17T03:16:45.831Z,11.43
2018-10-17T03:19:14.277Z,11.36
2018-10-17T03:21:42.505Z,11.36
2018-10-17T03:24:10.842Z,11.39
2018-10-17T03:26:39.183Z,11.44
2018-10-17T03:29:07.638Z,11.48
2018-10-17T03:31:36.012Z,11.42
2018-10-17T03:34:04.240Z,11.48
2018-10-17T03:36:32.577Z,11.46
2018-10-17T03:39:01.571Z,11.47
2018-10-17T03:41:29.893Z,11.45
2018-10-17T03:43:58.228Z,11.46
2018-10-17T03:46:26.544Z,11.41
2018-10-17T03:48:54.916Z,11.35
2018-10-17T03:51:23.246Z,11.40
2018-10-17T03:53:51.577Z,11.40
2018-10-17T03:56:19.918Z,11.36
2018-10-17T03:58:48.219Z,11.36
2018-10-17T04:01:16.601Z,11.32
2018-10-17T04:03:44.890Z,11.33
2018-10-17T04:06:13.214Z,11.21
2018-10-17T04:08:41.543Z,11.24
2018-10-17T04:11:09.950Z,11.29
2018-10-17T04:13:38.268Z,11.20
2018-10-17T04:16:06.616Z,11.25
2018-10-17T04:18:34.951Z,11.23
2018-10-17T04:21:03.294Z,11.25
2018-10-17T04:23:31.608Z,11.26
2018-10-17T04:25:59.980Z,11.19
2018-10-17T04:28:28.287Z,11.14
2018-10-17T04:30:56.683Z,11.19
2018-10-17T04:33:24.975Z,11.18
2018-10-17T04:35:53.300Z,11.19
2018-10-17T04:38:21.614Z,11.11
2018-10-17T04:40:49.961Z,11.05
2018-10-17T04:43:18.423Z,11.09
2018-10-17T04:45:46.682Z,11.08
2018-10-17T04:48:15.013Z,11.11
2018-10-17T04:50:43.381Z,11.09
2018-10-17T04:53:11.725Z,11.10
2018-10-17T04:55:40.068Z,11.08
2018-10-17T04:58:08.409Z,11.09
2018-10-17T05:00:36.734Z,11.11
2018-10-17T05:03:05.506Z,11.09
2018-10-17T05:05:33.852Z,11.11
2018-10-17T05:08:02.228Z,11.16
2018-10-17T05:10:30.696Z,11.20
2018-10-17T05:12:59.061Z,11.08
2018-10-17T05:15:27.374Z,11.09
2018-10-17T05:17:55.695Z,11.07
2018-10-17T05:20:24.031Z,11.05
2018-10-17T05:22:52.419Z,11.06
2018-10-17T05:25:20.733Z,11.11
2018-10-17T05:27:49.128Z,10.98
2018-10-17T05:30:17.481Z,10.95
2018-10-17T05:32:45.803Z,10.99
2018-10-17T05:35:14.186Z,11.07
2018-10-17T05:37:42.527Z,11.01
2018-10-17T05:40:10.891Z,11.07
2018-10-17T05:42:39.233Z,11.04
2018-10-17T05:45:08.217Z,11.04
2018-10-17T05:47:36.569Z,11.09
2018-10-17T05:50:05.018Z,11.05
2018-10-17T05:52:33.357Z,11.09
2018-10-17T05:55:01.720Z,11.14
2018-10-17T05:57:30.064Z,11.16
2018-10-17T05:59:58.423Z,11.19
2018-10-17T06:02:29.171Z,11.14
2018-10-17T06:04:57.509Z,11.17
2018-10-17T06:07:25.861Z,11.20
2018-10-17T06:09:54.185Z,11.22
2018-10-17T06:12:22.514Z,11.17
2018-10-17T06:14:50.842Z,11.20
2018-10-17T06:17:19.274Z,11.25
2018-10-17T06:19:47.548Z,11.24
2018-10-17T06:22:15.872Z,11.26
2018-10-17T06:24:44.199Z,11.28
2018-10-17T06:27:12.734Z,11.37
2018-10-17T06:29:41.187Z,11.41
2018-10-17T06:32:09.539Z,11.46
2018-10-17T06:34:38.171Z,11.51
2018-10-17T06:37:06.796Z,11.48
2018-10-17T06:39:35.011Z,11.45
2018-10-17T06:42:03.508Z,11.51
2018-10-17T06:44:31.855Z,11.56
2018-10-17T06:47:00.228Z,11.61
2018-10-17T06:49:28.540Z,11.65
2018-10-17T06:51:56.873Z,11.71
2018-10-17T06:54:25.354Z,11.79
2018-10-17T06:56:53.614Z,11.79
2018-10-17T06:59:21.951Z,11.82
2018-10-17T07:01:50.344Z,11.94
2018-10-17T07:04:18.651Z,11.97
2018-10-17T07:06:46.980Z,12.03
2018-10-17T07:09:15.310Z,12.07
2018-10-17T07:11:43.657Z,12.12
2018-10-17T07:14:11.994Z,12.15
2018-10-17T07:16:40.320Z,12.20
2018-10-17T07:19:08.701Z,12.30
2018-10-17T07:21:37.030Z,12.40
2018-10-17T07:24:05.364Z,12.51
2018-10-17T07:26:33.687Z,12.67
2018-10-17T07:29:02.052Z,12.81
2018-10-17T07:31:30.409Z,13.01
2018-10-17T07:33:58.764Z,13.26
2018-10-17T07:36:27.100Z,13.53
2018-10-17T07:38:55.423Z,13.75
2018-10-17T07:41:23.756Z,14.01
2018-10-17T07:43:52.076Z,14.29
2018-10-17T07:46:20.417Z,14.52
2018-10-17T07:48:48.761Z,14.86
2018-10-17T07:51:17.119Z,15.12
2018-10-17T07:53:45.471Z,15.45
2018-10-17T07:56:13.859Z,15.71
2018-10-17T07:58:42.240Z,15.94
2018-10-17T08:01:10.573Z,16.23
2018-10-17T08:03:38.896Z,16.45
2018-10-17T08:06:07.258Z,16.71
2018-10-17T08:08:35.599Z,16.82
2018-10-17T08:11:03.971Z,17.11
2018-10-17T08:13:32.312Z,17.48
2018-10-17T08:16:00.646Z,17.71
2018-10-17T08:18:29.039Z,17.77
2018-10-17T08:20:57.372Z,18.12
2018-10-17T08:23:25.693Z,18.36
2018-10-17T08:25:54.039Z,18.56
2018-10-17T08:28:22.382Z,18.51
2018-10-17T08:30:50.726Z,18.97
2018-10-17T08:33:19.045Z,19.06
2018-10-17T08:35:47.505Z,19.03
2018-10-17T08:38:15.728Z,19.36
2018-10-17T08:40:44.082Z,19.59
2018-10-17T08:43:12.426Z,19.87
2018-10-17T08:45:40.745Z,19.94
2018-10-17T08:48:09.080Z,20.18
2018-10-17T08:50:37.434Z,20.27
2018-10-17T08:53:05.767Z,20.35
2018-10-17T08:55:34.103Z,20.82
2018-10-17T08:58:02.814Z,20.52
2018-10-17T09:00:31.100Z,20.68
2018-10-17T09:02:59.455Z,20.73
2018-10-17T09:05:27.960Z,20.92
2018-10-17T09:07:56.352Z,21.38
2018-10-17T09:10:24.654Z,21.52
2018-10-17T09:12:52.973Z,21.36
2018-10-17T09:15:21.288Z,20.86
2018-10-17T09:17:49.712Z,21.64
2018-10-17T09:20:18.359Z,21.91
2018-10-17T09:22:46.379Z,21.99
2018-10-17T09:25:14.748Z,22.16
2018-10-17T09:27:43.064Z,21.66
2018-10-17T09:30:12.341Z,22.01
2018-10-17T09:32:40.777Z,22.50
2018-10-17T09:35:10.302Z,22.21
2018-10-17T09:37:38.608Z,22.65
2018-10-17T09:40:08.089Z,22.23
2018-10-17T09:42:36.387Z,22.46
2018-10-17T09:45:04.972Z,22.23
2018-10-17T09:47:33.315Z,22.65
2018-10-17T09:50:01.639Z,22.44
2018-10-17T09:52:29.973Z,22.59
2018-10-17T09:54:59.124Z,22.99
2018-10-17T09:57:27.453Z,23.22
2018-10-17T09:59:56.050Z,23.00
2018-10-17T10:02:24.495Z,23.61
2018-10-17T10:04:52.721Z,23.19
2018-10-17T10:07:21.031Z,22.83
2018-10-17T10:09:49.386Z,23.23
2018-10-17T10:12:17.804Z,23.36
2018-10-17T10:14:46.677Z,23.39
2018-10-17T10:17:15.201Z,23.42
2018-10-17T10:19:43.613Z,22.78
2018-10-17T10:22:12.045Z,23.46
2018-10-17T10:24:40.326Z,23.03
2018-10-17T10:27:08.725Z,23.29
2018-10-17T10:29:37.134Z,23.31
2018-10-17T10:32:05.475Z,22.98
2018-10-17T10:34:33.816Z,22.85
2018-10-17T10:37:02.179Z,22.92
2018-10-17T10:39:30.496Z,22.68
2018-10-17T10:41:58.888Z,22.22
2018-10-17T10:44:27.446Z,22.31
2018-10-17T10:46:55.817Z,22.30
2018-10-17T10:49:24.158Z,22.22
2018-10-17T10:53:16.920Z,22.12
2018-10-17T10:55:45.279Z,22.17
2018-10-17T10:58:13.632Z,22.05
2018-10-17T11:00:41.962Z,22.00
2018-10-17T11:03:10.340Z,21.93
2018-10-17T11:05:38.827Z,21.87
2018-10-17T11:08:07.240Z,21.83
2018-10-17T11:10:35.527Z,21.78
2018-10-17T11:13:03.855Z,21.52
2018-10-17T11:15:32.187Z,21.41
2018-10-17T11:18:00.507Z,21.43
2018-10-17T11:20:28.819Z,21.41
2018-10-17T11:22:57.258Z,21.25
2018-10-17T11:25:25.619Z,21.26
2018-10-17T11:27:53.953Z,21.15
2018-10-17T11:30:22.315Z,21.06
2018-10-17T11:32:50.665Z,21.20
2018-10-17T11:35:19.089Z,21.15
2018-10-17T11:37:47.405Z,21.14
2018-10-17T11:40:15.837Z,21.09
2018-10-17T11:42:44.153Z,21.08
2018-10-17T11:45:12.542Z,20.95
2018-10-17T11:47:40.893Z,21.02
2018-10-17T11:50:10.096Z,20.97
2018-10-17T11:52:38.759Z,20.84
2018-10-17T11:55:07.254Z,20.89
2018-10-17T11:57:35.697Z,20.74
2018-10-17T12:00:04.489Z,20.77
2018-10-17T12:02:32.843Z,20.80
2018-10-17T12:05:01.385Z,20.86
2018-10-17T12:07:29.537Z,20.77
2018-10-17T12:09:57.869Z,20.79
2018-10-17T12:12:26.300Z,20.74
2018-10-17T12:14:54.601Z,20.81
2018-10-17T12:17:22.988Z,20.77
2018-10-17T12:19:51.449Z,20.74
2018-10-17T12:22:19.729Z,20.77
2018-10-17T12:24:48.102Z,20.79
2018-10-17T12:27:16.508Z,20.82
2018-10-17T12:29:44.855Z,20.80
2018-10-17T12:32:13.210Z,20.76
2018-10-17T12:34:41.544Z,20.73
2018-10-17T12:37:09.911Z,20.63
2018-10-17T12:39:38.388Z,20.67
2018-10-17T12:42:06.693Z,20.64
2018-10-17T12:44:35.033Z,20.68
2018-10-17T12:47:03.426Z,20.66
2018-10-17T12:49:31.808Z,20.69
2018-10-17T12:52:00.204Z,20.64
2018-10-17T12:54:28.524Z,20.68
2018-10-17T12:56:56.867Z,20.70
2018-10-17T12:59:25.184Z,20.68
2018-10-17T13:01:53.525Z,20.69
2018-10-17T13:04:21.870Z,20.69
2018-10-17T13:06:50.207Z,20.68
2018-10-17T13:09:18.559Z,20.65
2018-10-17T13:11:46.869Z,20.68
2018-10-17T13:14:15.204Z,20.69
2018-10-17T13:16:43.525Z,20.67
2018-10-17T13:19:11.911Z,20.67
2018-10-17T13:21:40.289Z,20.68
2018-10-17T13:24:08.611Z,20.65
2018-10-17T13:26:36.940Z,20.64
2018-10-17T13:29:06.137Z,20.64
2018-10-17T13:31:34.501Z,20.63
2018-10-17T13:34:02.879Z,20.64
2018-10-17T13:36:31.205Z,20.64
2018-10-17T13:38:59.536Z,20.57
2018-10-17T13:41:27.884Z,20.60
2018-10-17T13:43:56.208Z,20.61
2018-10-17T13:46:24.555Z,20.59
2018-10-17T13:48:52.941Z,20.52
2018-10-17T13:51:21.267Z,20.56
2018-10-17T13:53:49.604Z,20.52
2018-10-17T13:56:17.995Z,20.49
2018-10-17T13:58:46.337Z,20.44
2018-10-17T14:01:14.686Z,20.42
2018-10-17T14:03:43.004Z,20.41
2018-10-17T14:06:11.410Z,20.43
2018-10-17T14:08:39.725Z,20.38
2018-10-17T14:11:08.813Z,20.38
2018-10-17T14:13:37.167Z,20.37
2018-10-17T14:16:05.929Z,20.36
2018-10-17T14:18:34.279Z,20.38
2018-10-17T14:21:02.651Z,20.35
2018-10-17T14:23:31.130Z,20.30
2018-10-17T14:25:59.370Z,20.28
2018-10-17T14:28:27.706Z,20.26
2018-10-17T14:30:56.026Z,20.24
2018-10-17T14:33:24.580Z,20.24
2018-10-17T14:35:52.949Z,20.19
2018-10-17T14:38:21.495Z,20.19
2018-10-17T14:40:50.592Z,20.20
2018-10-17T14:43:18.972Z,20.19
2018-10-17T14:45:47.329Z,20.17
2018-10-17T14:48:15.747Z,20.14
2018-10-17T14:50:44.039Z,20.12
2018-10-17T14:53:12.507Z,20.10
2018-10-17T14:55:40.777Z,20.06
2018-10-17T14:58:09.119Z,20.07
2018-10-17T15:00:38.273Z,20.05
2018-10-17T15:03:06.675Z,19.98
2018-10-17T15:05:35.011Z,19.94
2018-10-17T15:08:03.380Z,19.92
2018-10-17T15:10:32.034Z,19.90
2018-10-17T15:13:00.317Z,19.86
2018-10-17T15:15:28.657Z,19.83
2018-10-17T15:17:57.041Z,19.80
2018-10-17T15:20:25.353Z,19.77
2018-10-17T15:22:53.691Z,19.71
2018-10-17T15:25:22.028Z,19.69
2018-10-17T15:27:50.382Z,19.64
2018-10-17T15:30:18.865Z,19.61
2018-10-17T15:32:47.102Z,19.57
2018-10-17T15:35:15.431Z,19.53
2018-10-17T15:37:43.780Z,19.47
2018-10-17T15:40:12.114Z,19.43
2018-10-17T15:42:40.457Z,19.39
2018-10-17T15:45:08.860Z,19.36
2018-10-17T15:47:37.152Z,19.30
2018-10-17T15:50:05.674Z,19.25
2018-10-17T15:52:34.008Z,19.18
2018-10-17T15:55:02.354Z,19.12
2018-10-17T15:57:30.743Z,19.01
2018-10-17T15:59:59.167Z,18.90
2018-10-17T16:02:27.785Z,18.85
2018-10-17T16:04:56.142Z,18.69
2018-10-17T16:07:24.484Z,18.62
2018-10-17T16:09:53.667Z,18.54
2018-10-17T16:12:22.399Z,18.47
2018-10-17T16:14:50.746Z,18.49
2018-10-17T16:17:19.494Z,18.38
2018-10-17T16:19:47.825Z,18.39
2018-10-17T16:22:16.162Z,18.33
2018-10-17T16:24:44.561Z,18.25
2018-10-17T16:27:12.874Z,18.20
2018-10-17T16:29:41.222Z,18.14
2018-10-17T16:32:09.653Z,18.11
2018-10-17T16:34:37.957Z,17.99
2018-10-17T16:37:06.301Z,17.96
2018-10-17T16:39:34.656Z,17.90
2018-10-17T16:42:03.043Z,17.85
2018-10-17T16:44:31.396Z,17.82
2018-10-17T16:47:00.434Z,17.74
2018-10-17T16:49:28.891Z,17.62
2018-10-17T16:51:57.329Z,17.61
2018-10-17T16:54:25.814Z,17.54
2018-10-17T16:56:54.138Z,17.50
2018-10-17T16:59:22.467Z,17.41
2018-10-17T17:01:50.892Z,17.35
2018-10-17T17:04:19.350Z,17.31
2018-10-17T17:06:47.815Z,17.09
2018-10-17T17:09:16.254Z,17.09
2018-10-17T17:11:44.504Z,17.10
2018-10-17T17:14:12.840Z,17.00
2018-10-17T17:16:41.163Z,17.01
2018-10-17T17:19:09.504Z,16.97
2018-10-17T17:21:37.843Z,16.89
2018-10-17T17:24:06.218Z,16.84
2018-10-17T17:26:34.666Z,16.77
2018-10-17T17:29:03.003Z,16.67
2018-10-17T17:31:31.340Z,16.61
2018-10-17T17:33:59.677Z,16.55
2018-10-17T17:36:28.143Z,16.57
2018-10-17T17:38:56.418Z,16.58
2018-10-17T17:41:25.130Z,16.42
2018-10-17T17:43:53.631Z,16.47
2018-10-17T17:46:22.029Z,16.38
2018-10-17T17:48:50.795Z,16.33
2018-10-17T17:51:19.270Z,16.25
2018-10-17T17:53:47.597Z,16.20
2018-10-17T17:56:16.003Z,16.15
2018-10-17T17:58:44.357Z,16.11
2018-10-17T18:01:12.699Z,16.06
2018-10-17T18:03:41.040Z,16.02
2018-10-17T18:06:09.486Z,15.94
2018-10-17T18:08:37.826Z,15.92
2018-10-17T18:11:18.572Z,15.95
2018-10-17T18:13:46.928Z,15.96
2018-10-17T18:16:15.476Z,15.89
2018-10-17T18:18:44.270Z,15.93
2018-10-17T18:21:12.649Z,15.86
2018-10-17T18:23:41.417Z,15.83
2018-10-17T18:26:10.104Z,15.83
2018-10-17T18:28:38.537Z,15.69
2018-10-17T18:31:06.840Z,15.72
2018-10-17T18:33:35.173Z,15.73
2018-10-17T18:36:03.698Z,15.68
2018-10-17T18:38:32.055Z,15.58
2018-10-17T18:41:00.438Z,15.60
2018-10-17T18:43:28.772Z,15.54
2018-10-17T18:45:57.430Z,15.53
2018-10-17T18:48:26.039Z,15.51
2018-10-17T18:50:54.461Z,15.37
2018-10-17T18:53:22.890Z,15.37
2018-10-17T18:55:51.822Z,15.25
2018-10-17T18:58:20.069Z,15.33
2018-10-17T19:00:48.475Z,15.33
2018-10-17T19:03:16.869Z,15.28
2018-10-17T19:05:45.771Z,15.17
2018-10-17T19:08:14.286Z,15.14
2018-10-17T19:10:42.788Z,15.08
2018-10-17T19:13:11.377Z,15.08
2018-10-17T19:15:39.768Z,15.02
2018-10-17T19:18:08.670Z,14.99
2018-10-17T19:20:37.021Z,14.99
2018-10-17T19:23:05.938Z,14.99
2018-10-17T19:25:34.309Z,14.89
2018-10-17T19:28:02.664Z,14.91
2018-10-17T19:30:31.590Z,14.91
2018-10-17T19:32:59.960Z,14.90
2018-10-17T19:35:28.380Z,14.90
2018-10-17T19:37:56.725Z,14.87
2018-10-17T19:40:25.103Z,14.86
2018-10-17T19:42:53.471Z,14.81
2018-10-17T19:45:21.808Z,14.79
2018-10-17T19:47:50.164Z,14.72
2018-10-17T19:50:19.138Z,14.64
2018-10-17T19:52:47.483Z,14.62
2018-10-17T19:55:16.720Z,14.66
2018-10-17T19:57:45.091Z,14.64
2018-10-17T20:00:14.460Z,14.57
2018-10-17T20:02:43.465Z,14.53
2018-10-17T20:05:12.244Z,14.26
2018-10-17T20:07:41.194Z,14.31
2018-10-17T20:10:09.737Z,14.33
2018-10-17T20:12:38.129Z,14.39
2018-10-17T20:15:07.017Z,14.40
2018-10-17T20:17:35.530Z,14.38
2018-10-17T20:20:04.139Z,14.35
2018-10-17T20:22:32.497Z,14.36
2018-10-17T20:25:00.904Z,14.32
2018-10-17T20:27:29.363Z,14.33
2018-10-17T20:29:57.709Z,14.23
2018-10-17T20:32:26.132Z,14.26
2018-10-17T20:34:54.563Z,14.24
2018-10-17T20:37:22.927Z,14.16
2018-10-17T20:39:51.294Z,14.18
2018-10-17T20:42:19.687Z,14.12
2018-10-17T20:44:48.037Z,14.08
2018-10-17T20:47:16.368Z,14.10
2018-10-17T20:49:44.696Z,14.08
2018-10-17T20:52:13.698Z,13.96
2018-10-17T20:54:42.078Z,13.97
2018-10-17T20:57:10.425Z,13.95
2018-10-17T20:59:38.744Z,13.91
2018-10-17T21:02:07.122Z,13.96
2018-10-17T21:04:35.461Z,13.91
2018-10-17T21:07:03.805Z,13.91
2018-10-17T21:09:32.159Z,13.87
2018-10-17T21:12:00.515Z,13.88
2018-10-17T21:14:29.034Z,13.85
2018-10-17T21:16:57.391Z,13.82
2018-10-17T21:19:25.732Z,13.71
2018-10-17T21:21:54.091Z,13.74
2018-10-17T21:24:22.442Z,13.74
2018-10-17T21:26:50.827Z,13.70
2018-10-17T21:29:19.183Z,13.69
2018-10-17T21:31:47.544Z,13.63
2018-10-17T21:34:15.869Z,13.58
2018-10-17T21:36:44.223Z,13.61
2018-10-17T21:39:13.927Z,13.58
2018-10-17T21:41:42.609Z,13.56
2018-10-17T21:44:11.688Z,13.46
2018-10-17T21:46:40.475Z,13.43
2018-10-17T21:49:09.692Z,13.40
2018-10-17T21:58:38.499Z,13.30
2018-10-17T22:01:06.849Z,13.25
2018-10-17T22:03:35.191Z,13.26
2018-10-17T22:06:03.533Z,13.13
2018-10-17T22:08:31.868Z,13.08
2018-10-17T22:11:00.191Z,13.01
2018-10-17T22:13:28.494Z,13.07
2018-10-17T22:15:56.846Z,13.04
2018-10-17T22:18:25.193Z,13.03
2018-10-17T22:20:54.117Z,12.89
2018-10-17T22:23:22.449Z,12.90
2018-10-17T22:25:50.776Z,12.88
2018-10-17T22:28:19.138Z,12.92
2018-10-17T22:30:47.465Z,12.97
2018-10-17T22:33:15.808Z,12.90
2018-10-17T22:35:44.122Z,12.96
2018-10-17T22:38:12.522Z,12.94
2018-10-17T22:40:40.826Z,12.87
2018-10-17T22:43:09.189Z,12.88
2018-10-17T22:45:37.705Z,12.84
2018-10-17T22:48:06.115Z,12.79
2018-10-17T22:50:34.457Z,12.82
2018-10-17T22:53:02.787Z,12.67
2018-10-17T22:55:31.120Z,12.73
2018-10-17T22:57:59.447Z,12.75
2018-10-17T23:00:27.792Z,12.78
2018-10-17T23:02:56.120Z,12.70
2018-10-17T23:05:24.469Z,12.71
2018-10-17T23:07:52.801Z,12.75
2018-10-17T23:10:21.116Z,12.75
2018-10-17T23:12:49.464Z,12.73
2018-10-17T23:15:17.790Z,12.71
2018-10-17T23:17:46.116Z,12.67
2018-10-17T23:20:14.554Z,12.64
2018-10-17T23:22:42.813Z,12.63
2018-10-17T23:25:12.014Z,12.59
2018-10-17T23:27:40.909Z,12.57
2018-10-17T23:30:10.293Z,12.51
2018-10-17T23:32:39.596Z,12.53
2018-10-17T23:35:07.922Z,12.52
2018-10-17T23:37:36.561Z,12.50
2018-10-17T23:40:05.524Z,12.49
2018-10-17T23:42:33.921Z,12.47
2018-10-17T23:45:02.219Z,12.38
2018-10-17T23:47:30.691Z,12.41
2018-10-17T23:49:59.080Z,12.41
2018-10-17T23:52:27.393Z,12.37
2018-10-17T23:54:55.728Z,12.37
2018-10-17T23:57:24.080Z,12.32
2018-10-17T23:59:52.449Z,12.31
